Time;durP1;ratioP1;P1;durP2;ratioP2;P2;SDS_P1;SDS_P2;PMS_P1;PMS_P2;Temp;Humidity;BMP_temperature;BMP_pressure;BME280_temperature;BME280_humidity;BME280_pressure;Samples;Min_cycle;Max_cycle;Signal;HPM_P1;HPM_P2
2022/05/28 00:01:21;;;;;;;2.63;2.10;;;21.40;48.60;22.80;101344.00;;;;4990731;28;20536;-48
2022/05/28 00:03:48;;;;;;;2.80;2.20;;;21.40;48.80;22.80;101339.00;;;;4990856;28;20679;-48
2022/05/28 00:06:18;;;;;;;3.03;2.27;;;21.40;48.80;22.80;101339.00;;;;4991037;28;20256;-48
2022/05/28 00:08:44;;;;;;;2.70;1.93;;;21.40;48.90;22.80;101328.00;;;;4989397;28;20719;-48
2022/05/28 00:11:22;;;;;;;3.60;2.37;;;21.40;48.90;22.80;101328.00;;;;4990502;28;20200;-49
2022/05/28 00:13:48;;;;;;;2.80;2.07;;;21.40;49.00;22.70;101327.00;;;;4990621;28;20179;-48
2022/05/28 00:16:14;;;;;;;3.03;2.20;;;21.40;49.00;22.70;101318.00;;;;4990356;28;20833;-49
2022/05/28 00:18:40;;;;;;;3.57;2.27;;;21.30;49.00;22.70;101312.00;;;;4989059;28;20175;-49
2022/05/28 00:21:09;;;;;;;3.20;2.40;;;21.30;49.10;22.70;101313.00;;;;4990370;28;20822;-48
2022/05/28 00:23:36;;;;;;;3.10;2.10;;;21.30;49.10;22.70;101317.00;;;;4990660;28;20559;-49
2022/05/28 00:26:03;;;;;;;3.13;2.40;;;21.30;49.10;22.60;101317.00;;;;4994736;28;20287;-48
2022/05/28 00:28:28;;;;;;;2.77;2.17;;;21.30;49.10;22.60;101317.00;;;;5007565;28;20177;-48
2022/05/28 00:30:54;;;;;;;2.20;1.93;;;21.30;49.10;22.60;101307.00;;;;4993108;28;20299;-49
2022/05/28 00:33:20;;;;;;;4.07;2.20;;;21.30;49.10;22.50;101304.00;;;;4990663;28;20191;-48
2022/05/28 00:35:46;;;;;;;2.70;2.10;;;21.20;49.30;22.50;101306.00;;;;4991922;28;20207;-48
2022/05/28 00:38:11;;;;;;;2.60;2.10;;;21.20;49.40;22.50;101305.00;;;;4991500;28;20182;-48
2022/05/28 00:40:37;;;;;;;3.10;2.30;;;21.20;49.40;22.50;101313.00;;;;4995028;28;20838;-48
2022/05/28 00:43:04;;;;;;;3.00;2.20;;;21.20;49.40;22.50;101312.00;;;;4995635;28;20173;-48
2022/05/28 00:45:30;;;;;;;3.30;2.20;;;21.20;49.40;22.40;101310.00;;;;4993457;28;20187;-50
2022/05/28 00:47:57;;;;;;;3.07;2.13;;;21.20;49.40;22.40;101311.00;;;;4988589;28;20667;-49
2022/05/28 00:50:23;;;;;;;2.60;2.07;;;21.10;49.30;22.40;101310.00;;;;4972627;28;20210;-49
2022/05/28 00:52:49;;;;;;;3.27;2.07;;;21.10;49.30;22.40;101314.00;;;;4988661;28;20180;-49
2022/05/28 00:55:15;;;;;;;4.00;2.30;;;21.20;49.40;22.40;101305.00;;;;4988536;28;20214;-49
2022/05/28 00:57:41;;;;;;;3.17;2.10;;;21.10;49.30;22.30;101307.00;;;;4989516;28;20211;-48
2022/05/28 01:00:17;;;;;;;4.10;2.50;;;21.10;49.40;22.30;101295.00;;;;4972784;28;20202;-49
2022/05/28 01:03:20;;;;;;;2.80;2.10;;;21.00;49.40;22.30;101301.00;;;;4988940;28;20175;-50
2022/05/28 01:06:19;;;;;;;3.10;2.33;;;21.00;49.40;22.20;101290.00;;;;4989083;28;20178;-47
2022/05/28 01:08:50;;;;;;;2.60;2.10;;;21.00;49.40;22.20;101297.00;;;;4975576;28;20160;-49
2022/05/28 01:11:33;;;;;;;2.80;2.10;;;21.10;49.50;22.20;101291.00;;;;4997035;28;20287;-48
2022/05/28 01:14:26;;;;;;;2.67;2.30;;;21.10;49.60;22.20;101291.00;;;;4988228;28;20162;-49
2022/05/28 01:17:00;;;;;;;2.80;2.20;;;21.00;49.40;22.10;101279.00;;;;4989534;28;20423;-50
2022/05/28 01:20:09;;;;;;;2.27;2.07;;;21.00;49.50;22.10;101265.00;;;;4972541;28;20823;-47
2022/05/28 01:23:08;;;;;;;4.07;2.00;;;21.00;49.70;22.10;101272.00;;;;4988392;28;20268;-48
2022/05/28 01:25:56;;;;;;;2.43;1.90;;;20.90;49.70;22.10;101276.00;;;;4988334;28;20216;-49
2022/05/28 01:28:32;;;;;;;2.73;2.00;;;20.90;49.90;22.00;101273.00;;;;4971995;28;20204;-49
2022/05/28 01:30:58;;;;;;;2.20;2.00;;;20.90;49.80;22.00;101279.00;;;;4973005;28;20202;-49
2022/05/28 01:33:24;;;;;;;2.67;1.93;;;20.90;49.80;22.00;101277.00;;;;4971898;28;20169;-49
2022/05/28 01:35:49;;;;;;;2.93;2.03;;;20.90;49.90;22.00;101276.00;;;;4971715;28;20198;-49
2022/05/28 01:38:15;;;;;;;2.97;2.03;;;20.90;49.80;22.00;101268.00;;;;4971765;28;20685;-50
2022/05/28 01:40:41;;;;;;;2.40;1.90;;;20.90;49.90;22.00;101263.00;;;;4971565;28;20714;-49
2022/05/28 01:43:08;;;;;;;2.70;2.10;;;20.80;49.90;22.00;101278.00;;;;4971818;28;20670;-49
2022/05/28 01:45:34;;;;;;;2.77;1.83;;;20.80;50.00;21.90;101272.00;;;;4972383;28;20200;-48
2022/05/28 01:48:03;;;;;;;3.03;2.00;;;20.90;50.20;21.90;101268.00;;;;4971279;28;20172;-48
2022/05/28 01:50:31;;;;;;;2.47;1.90;;;20.80;50.20;21.90;101255.00;;;;4987713;28;20224;-49
2022/05/28 01:52:56;;;;;;;3.13;2.13;;;20.80;50.30;21.90;101270.00;;;;4971963;28;20175;-47
2022/05/28 01:55:23;;;;;;;2.53;2.03;;;20.80;50.30;21.90;101260.00;;;;4971277;28;20216;-48
2022/05/28 01:57:49;;;;;;;3.50;2.20;;;20.80;50.30;21.90;101257.00;;;;4955345;28;20647;-48
2022/05/28 02:00:16;;;;;;;2.50;2.07;;;20.80;50.40;21.90;101252.00;;;;4971211;28;20195;-47
2022/05/28 02:02:41;;;;;;;2.70;2.00;;;20.70;50.50;21.90;101265.00;;;;4987314;28;20169;-48
2022/05/28 02:05:08;;;;;;;3.87;2.20;;;20.70;50.70;21.90;101258.00;;;;4987349;28;20169;-49
2022/05/28 02:07:33;;;;;;;2.63;2.10;;;20.70;50.60;21.80;101256.00;;;;4987077;28;20191;-50
2022/05/28 02:10:03;;;;;;;2.30;1.80;;;20.70;50.70;21.80;101266.00;;;;4988327;28;20272;-49
2022/05/28 02:12:53;;;;;;;3.27;2.00;;;20.70;50.50;21.80;101245.00;;;;4987153;28;20184;-49
2022/05/28 02:15:30;;;;;;;2.37;2.00;;;20.70;50.70;21.80;101260.00;;;;4971544;28;20685;-48
2022/05/28 02:18:25;;;;;;;2.33;1.87;;;20.60;50.70;21.80;101259.00;;;;4974784;28;20163;-48
2022/05/28 02:21:09;;;;;;;3.27;2.33;;;20.60;50.70;21.80;101258.00;;;;4988137;28;20211;-49
2022/05/28 02:23:49;;;;;;;2.80;2.00;;;20.60;50.70;21.70;101248.00;;;;4987149;28;20220;-48
2022/05/28 02:27:02;;;;;;;2.67;2.07;;;20.60;50.80;21.70;101255.00;;;;4972311;28;20166;-48
2022/05/28 02:29:28;;;;;;;3.43;2.30;;;20.60;50.70;21.70;101253.00;;;;4976656;28;20193;-49
2022/05/28 02:31:54;;;;;;;2.27;2.07;;;20.60;50.80;21.70;101253.00;;;;4971051;28;20660;-48
2022/05/28 02:34:20;;;;;;;3.33;2.10;;;20.60;50.70;21.70;101248.00;;;;4988456;28;20200;-49
2022/05/28 02:36:45;;;;;;;2.70;2.03;;;20.50;50.60;21.70;101250.00;;;;4991680;28;20168;-48
2022/05/28 02:39:11;;;;;;;3.07;2.03;;;20.50;50.60;21.70;101244.00;;;;5010214;28;20172;-49
2022/05/28 02:41:38;;;;;;;2.93;2.20;;;20.50;50.60;21.60;101242.00;;;;4993281;28;20193;-49
2022/05/28 02:44:04;;;;;;;2.50;1.90;;;20.50;50.60;21.60;101246.00;;;;4988952;28;20720;-49
2022/05/28 02:46:30;;;;;;;2.60;2.00;;;20.50;50.60;21.60;101254.00;;;;4989609;28;20280;-50
2022/05/28 02:48:55;;;;;;;3.73;2.37;;;20.50;50.70;21.60;101234.00;;;;4989272;28;20268;-49
2022/05/28 02:51:22;;;;;;;2.67;2.20;;;20.50;50.70;21.60;101237.00;;;;4987995;28;20247;-48
2022/05/28 02:53:49;;;;;;;3.67;2.10;;;20.40;50.60;21.60;101244.00;;;;4990060;28;20182;-49
2022/05/28 02:56:15;;;;;;;2.77;2.10;;;20.40;50.70;21.60;101244.00;;;;4991599;28;20835;-48
2022/05/28 02:58:41;;;;;;;3.33;2.40;;;20.50;50.80;21.60;101235.00;;;;4991571;28;20263;-48
2022/05/28 03:01:28;;;;;;;4.70;2.20;;;20.40;50.70;21.60;101241.00;;;;4991785;28;20275;-49
2022/05/28 03:03:55;;;;;;;3.13;2.23;;;20.40;50.80;21.60;101244.00;;;;4992099;28;20243;-47
2022/05/28 03:06:21;;;;;;;3.00;2.13;;;20.40;50.80;21.50;101245.00;;;;4991988;28;20699;-49
2022/05/28 03:08:46;;;;;;;3.47;2.27;;;20.40;50.80;21.50;101248.00;;;;4993461;28;20180;-48
2022/05/28 03:11:12;;;;;;;3.43;2.30;;;20.40;50.90;21.50;101257.00;;;;4991096;28;20214;-48
2022/05/28 03:13:38;;;;;;;2.57;2.00;;;20.40;50.90;21.50;101247.00;;;;4991762;28;20177;-48
2022/05/28 03:16:04;;;;;;;2.53;2.03;;;20.40;50.90;21.50;101247.00;;;;4992058;28;20202;-48
2022/05/28 03:18:30;;;;;;;2.47;2.10;;;20.40;50.90;21.50;101251.00;;;;4991590;28;20196;-49
2022/05/28 03:20:56;;;;;;;2.67;2.00;;;20.30;50.90;21.50;101257.00;;;;4991652;28;20583;-48
2022/05/28 03:23:21;;;;;;;2.63;2.17;;;20.40;51.00;21.50;101239.00;;;;4991656;28;20173;-49
2022/05/28 03:25:47;;;;;;;3.83;2.00;;;20.30;50.90;21.50;101250.00;;;;4991315;28;20199;-48
2022/05/28 03:28:13;;;;;;;3.33;2.10;;;20.30;51.00;21.50;101245.00;;;;4984793;28;20184;-49
2022/05/28 03:30:39;;;;;;;3.00;2.20;;;20.30;51.00;21.50;101238.00;;;;4982094;28;20204;-48
2022/05/28 03:33:04;;;;;;;3.87;2.20;;;20.30;51.20;21.50;101232.00;;;;4990793;28;20900;-49
2022/05/28 03:35:30;;;;;;;2.63;2.00;;;20.30;51.40;21.50;101231.00;;;;4990851;28;20219;-49
2022/05/28 03:37:56;;;;;;;5.70;2.27;;;20.30;51.20;21.50;101243.00;;;;4990661;28;20230;-50
2022/05/28 03:40:21;;;;;;;2.50;2.07;;;20.30;51.20;21.50;101236.00;;;;4990564;28;20201;-50
2022/05/28 03:42:47;;;;;;;2.93;2.10;;;20.30;51.20;21.50;101233.00;;;;4990883;28;20256;-48
2022/05/28 03:45:13;;;;;;;4.33;1.97;;;20.30;51.20;21.50;101238.00;;;;4996465;28;20212;-48
2022/05/28 03:47:39;;;;;;;4.53;2.00;;;20.30;51.20;21.50;101246.00;;;;4996516;28;20186;-49
2022/05/28 03:50:05;;;;;;;6.03;2.10;;;20.30;51.20;21.50;101237.00;;;;4993610;28;20640;-48
2022/05/28 03:52:30;;;;;;;3.87;2.17;;;20.30;51.40;21.50;101234.00;;;;4990972;28;20181;-51
2022/05/28 03:54:56;;;;;;;4.17;2.20;;;20.30;51.40;21.50;101242.00;;;;4990590;28;20216;-50
2022/05/28 03:57:25;;;;;;;4.13;2.00;;;20.30;51.40;21.40;101250.00;;;;4990167;28;20180;-50
2022/05/28 03:59:52;;;;;;;4.47;2.10;;;20.30;51.30;21.20;101238.00;;;;4990451;28;20689;-49
2022/05/28 04:02:17;;;;;;;2.60;1.90;;;20.30;51.40;21.40;101244.00;;;;4989096;28;20281;-49
2022/05/28 04:04:43;;;;;;;2.70;2.00;;;20.30;51.30;21.40;101237.00;;;;4989811;28;20211;-49
2022/05/28 04:07:10;;;;;;;2.37;1.70;;;20.20;51.40;21.40;101248.00;;;;4989969;28;20180;-49
2022/05/28 04:09:36;;;;;;;3.00;2.03;;;20.20;51.40;21.40;101245.00;;;;4989005;28;20279;-49
2022/05/28 04:12:02;;;;;;;3.50;2.00;;;20.30;51.40;21.40;101250.00;;;;4990067;28;20661;-49
2022/05/28 04:14:28;;;;;;;2.30;1.80;;;20.20;51.30;21.40;101248.00;;;;4990508;28;20235;-50
2022/05/28 04:16:53;;;;;;;2.17;1.97;;;20.20;51.30;21.40;101248.00;;;;4990020;28;20184;-49
2022/05/28 04:19:19;;;;;;;3.20;1.87;;;20.20;51.40;21.40;101248.00;;;;4990158;28;20164;-49
2022/05/28 04:21:46;;;;;;;2.30;1.90;;;20.20;51.40;21.40;101256.00;;;;4990295;28;20195;-49
2022/05/28 04:24:11;;;;;;;2.00;1.80;;;20.20;51.40;21.40;101245.00;;;;4996025;28;20173;-48
2022/05/28 04:26:37;;;;;;;2.20;1.90;;;20.20;51.50;21.40;101243.00;;;;4996018;28;20234;-49
2022/05/28 04:29:03;;;;;;;2.17;1.77;;;20.20;51.40;21.40;101255.00;;;;4989646;28;20180;-50
2022/05/28 04:31:29;;;;;;;2.33;2.00;;;20.20;51.50;21.40;101252.00;;;;4990030;28;20196;-50
2022/05/28 04:33:55;;;;;;;2.37;1.83;;;20.20;51.50;21.30;101246.00;;;;4989541;28;20184;-50
2022/05/28 04:36:21;;;;;;;3.77;1.80;;;20.20;51.50;21.30;101255.00;;;;4989638;28;20207;-49
2022/05/28 04:38:46;;;;;;;2.83;1.80;;;20.20;51.60;21.30;101249.00;;;;4989869;28;20543;-49
2022/05/28 04:41:12;;;;;;;4.10;1.83;;;20.20;51.70;21.30;101252.00;;;;4988380;28;20196;-49
2022/05/28 04:43:38;;;;;;;3.43;2.00;;;20.10;51.70;21.30;101267.00;;;;4989982;28;20204;-50
2022/05/28 04:46:03;;;;;;;3.47;2.00;;;20.10;51.80;21.30;101263.00;;;;4989679;28;20183;-49
2022/05/28 04:48:31;;;;;;;3.40;1.90;;;20.10;51.80;21.30;101256.00;;;;5008744;28;20249;-49
2022/05/28 04:50:57;;;;;;;6.47;2.83;;;20.10;51.70;21.30;101269.00;;;;4997806;28;20204;-48
2022/05/28 04:53:22;;;;;;;6.50;3.27;;;20.10;50.60;21.20;101262.00;;;;4989449;28;20288;-48
2022/05/28 04:55:48;;;;;;;8.10;3.27;;;20.00;49.40;21.20;101255.00;;;;4991056;28;20404;-49
2022/05/28 04:58:14;;;;;;;4.87;2.83;;;20.00;49.50;21.20;101268.00;;;;4990407;28;20164;-48
2022/05/28 05:00:40;;;;;;;8.07;3.50;;;20.00;50.00;21.10;101266.00;;;;4991163;28;20192;-47
2022/05/28 05:03:06;;;;;;;7.63;3.33;;;19.90;49.20;21.10;101268.00;;;;4998291;28;20268;-48
2022/05/28 05:05:32;;;;;;;6.33;3.07;;;19.90;49.00;21.10;101268.00;;;;4999151;28;20246;-48
2022/05/28 05:07:59;;;;;;;4.83;3.07;;;19.80;49.10;21.00;101266.00;;;;4992395;28;20204;-47
2022/05/28 05:10:25;;;;;;;6.13;3.27;;;19.80;49.60;21.00;101279.00;;;;4989604;28;20188;-48
2022/05/28 05:12:51;;;;;;;7.47;3.23;;;19.80;48.80;20.90;101276.00;;;;4989385;28;20170;-48
2022/05/28 05:15:17;;;;;;;5.50;3.30;;;19.70;48.70;20.90;101275.00;;;;4988873;28;20231;-49
2022/05/28 05:17:42;;;;;;;7.27;3.67;;;19.80;49.60;20.90;101275.00;;;;4987941;28;20311;-48
2022/05/28 05:20:10;;;;;;;8.23;3.50;;;19.70;49.40;20.90;101277.00;;;;4989370;28;20200;-49
2022/05/28 05:22:36;;;;;;;5.93;3.20;;;19.70;49.40;20.90;101274.00;;;;4989091;28;20719;-46
2022/05/28 05:25:01;;;;;;;7.40;3.17;;;19.70;49.10;20.90;101272.00;;;;4989003;28;20180;-48
2022/05/28 05:27:27;;;;;;;7.43;3.60;;;19.70;49.40;20.90;101283.00;;;;4989339;28;20177;-47
2022/05/28 05:29:57;;;;;;;6.47;3.43;;;19.70;49.20;20.80;101278.00;;;;4988911;28;20200;-49
2022/05/28 05:32:22;;;;;;;9.57;3.40;;;19.60;49.80;20.80;101281.00;;;;4988603;28;20263;-49
2022/05/28 05:34:48;;;;;;;7.00;3.43;;;19.60;49.80;20.80;101283.00;;;;4988081;28;20280;-48
2022/05/28 05:37:14;;;;;;;8.43;3.50;;;19.60;49.90;20.80;101272.00;;;;4987960;28;20184;-48
2022/05/28 05:39:40;;;;;;;5.77;2.90;;;19.60;49.40;20.80;101271.00;;;;4988578;28;20192;-47
2022/05/28 05:42:05;;;;;;;6.23;3.40;;;19.50;49.80;20.80;101276.00;;;;4988405;28;20188;-49
2022/05/28 05:44:31;;;;;;;7.10;3.17;;;19.60;49.80;20.70;101276.00;;;;4988615;28;20231;-47
2022/05/28 05:46:57;;;;;;;6.77;3.30;;;19.50;50.00;20.70;101276.00;;;;4988293;28;20176;-47
2022/05/28 05:49:23;;;;;;;7.90;3.20;;;19.40;49.90;20.70;101279.00;;;;4988543;28;20183;-49
2022/05/28 05:51:48;;;;;;;7.60;3.63;;;19.30;50.20;20.60;101281.00;;;;4987343;28;20249;-48
2022/05/28 05:54:15;;;;;;;7.80;3.50;;;19.30;50.30;20.60;101278.00;;;;4988677;28;20172;-48
2022/05/28 05:56:40;;;;;;;8.77;3.50;;;19.30;50.70;20.60;101283.00;;;;4990811;28;20231;-47
2022/05/28 05:59:06;;;;;;;6.73;3.00;;;19.30;50.70;20.50;101278.00;;;;4996986;28;20176;-48
2022/05/28 06:01:32;;;;;;;4.73;3.00;;;19.30;50.70;20.50;101273.00;;;;4992440;28;20531;-47
2022/05/28 06:03:58;;;;;;;5.60;3.00;;;19.30;50.70;20.50;101278.00;;;;4988784;28;20176;-48
2022/05/28 06:06:23;;;;;;;5.47;3.00;;;19.30;50.80;20.50;101273.00;;;;4988597;28;20207;-49
2022/05/28 06:08:49;;;;;;;7.97;2.93;;;19.30;51.00;20.50;101277.00;;;;4995020;28;20167;-49
2022/05/28 06:11:15;;;;;;;6.07;3.23;;;19.30;51.00;20.50;101280.00;;;;4994225;28;20232;-47
2022/05/28 06:13:40;;;;;;;6.67;3.10;;;19.30;51.00;20.40;101280.00;;;;4989177;28;20172;-50
2022/05/28 06:16:06;;;;;;;6.37;2.93;;;19.30;51.10;20.40;101280.00;;;;4988063;28;20231;-48
2022/05/28 06:18:32;;;;;;;5.93;2.97;;;19.30;51.20;20.40;101276.00;;;;4987800;28;20207;-47
2022/05/28 06:21:01;;;;;;;4.83;2.80;;;19.20;51.10;20.30;101281.00;;;;4987852;28;20205;-48
2022/05/28 06:23:27;;;;;;;5.90;3.03;;;19.20;51.20;20.30;101272.00;;;;4987939;28;20877;-48
2022/05/28 06:25:53;;;;;;;7.37;3.30;;;19.20;51.40;20.30;101280.00;;;;4987954;28;20195;-49
2022/05/28 06:28:18;;;;;;;5.70;3.10;;;19.20;51.30;20.30;101280.00;;;;4986872;28;20180;-47
2022/05/28 06:30:45;;;;;;;6.70;3.30;;;19.10;51.20;20.30;101286.00;;;;4988002;28;20203;-48
2022/05/28 06:33:11;;;;;;;6.60;2.90;;;19.10;51.20;20.30;101294.00;;;;4987330;28;20187;-46
2022/05/28 06:35:37;;;;;;;9.90;2.90;;;19.10;51.00;20.20;101287.00;;;;4987506;28;20196;-48
2022/05/28 06:38:04;;;;;;;5.17;2.87;;;19.10;51.20;20.30;101283.00;;;;4987534;28;20675;-49
2022/05/28 06:40:29;;;;;;;5.30;2.70;;;19.20;51.40;20.30;101295.00;;;;4987765;28;20196;-50
2022/05/28 06:42:56;;;;;;;5.03;2.80;;;19.20;51.40;20.30;101294.00;;;;4986451;28;20727;-48
2022/05/28 06:45:22;;;;;;;5.60;2.67;;;19.20;51.70;20.30;101299.00;;;;4987852;28;20180;-48
2022/05/28 06:47:48;;;;;;;5.33;2.40;;;19.30;51.60;20.40;101295.00;;;;4986524;28;20176;-50
2022/05/28 06:53:00;;;;;;;4.77;2.40;;;19.30;51.80;20.40;101291.00;;;;4982526;28;20747;-49
2022/05/28 06:55:26;;;;;;;3.93;2.57;;;19.30;51.80;20.40;101292.00;;;;4974177;28;20236;-49
2022/05/28 06:57:52;;;;;;;4.70;2.50;;;19.30;52.00;20.40;101286.00;;;;4997042;28;20169;-47
2022/05/28 07:00:18;;;;;;;5.33;2.90;;;19.30;51.90;20.40;101282.00;;;;5007466;28;20203;-48
2022/05/28 07:02:43;;;;;;;4.97;2.57;;;19.30;51.90;20.40;101284.00;;;;4988565;28;20210;-48
2022/05/28 07:05:13;;;;;;;3.40;2.40;;;19.40;52.10;20.50;101281.00;;;;4990274;28;20187;-48
2022/05/28 07:07:39;;;;;;;3.53;2.50;;;19.30;52.00;20.50;101286.00;;;;4990957;28;20173;-57
2022/05/28 07:10:06;;;;;;;7.33;2.67;;;19.40;52.30;20.50;101267.00;;;;4989829;28;20202;-47
2022/05/28 07:12:31;;;;;;;3.20;2.30;;;19.40;53.00;20.50;101294.00;;;;4987885;28;20235;-47
2022/05/28 07:14:57;;;;;;;5.20;2.40;;;19.40;52.40;20.50;101290.00;;;;4992032;28;20269;-47
2022/05/28 07:17:23;;;;;;;4.03;2.27;;;19.40;52.70;20.50;101287.00;;;;4990853;28;20184;-49
2022/05/28 07:19:49;;;;;;;5.40;2.30;;;19.40;52.60;20.50;101291.00;;;;4990781;28;20200;-47
2022/05/28 07:22:16;;;;;;;6.13;2.63;;;19.40;52.70;20.50;101291.00;;;;4987379;28;20183;-48
2022/05/28 07:24:41;;;;;;;3.10;2.23;;;19.40;52.80;20.50;101288.00;;;;4818383;28;20271;-48
2022/05/28 07:27:07;;;;;;;6.17;2.40;;;19.40;52.80;20.50;101291.00;;;;4987053;28;20270;-47
2022/05/28 07:29:33;;;;;;;3.60;2.33;;;19.40;52.70;20.50;101301.00;;;;4987690;28;20177;-47
2022/05/28 07:31:58;;;;;;;3.93;2.37;;;19.40;52.70;20.50;101294.00;;;;4988570;28;20963;-47
2022/05/28 07:34:24;;;;;;;4.47;2.50;;;19.40;52.80;20.50;101302.00;;;;4988627;28;20177;-48
2022/05/28 07:36:50;;;;;;;4.27;2.10;;;19.40;52.80;20.50;101291.00;;;;4988236;28;20219;-49
2022/05/28 07:39:16;;;;;;;4.80;2.10;;;19.40;52.80;20.50;101297.00;;;;4987595;28;20168;-49
2022/05/28 07:41:43;;;;;;;2.33;2.07;;;19.40;52.80;20.50;101303.00;;;;4991415;28;20255;-47
2022/05/28 07:44:09;;;;;;;4.77;2.20;;;19.40;52.90;20.50;101304.00;;;;4992083;28;20519;-47
2022/05/28 07:46:35;;;;;;;3.80;2.23;;;19.40;52.80;20.50;101298.00;;;;4991394;28;20183;-49
2022/05/28 07:49:01;;;;;;;3.13;2.10;;;19.40;52.80;20.50;101307.00;;;;4988316;28;20184;-48
2022/05/28 07:51:27;;;;;;;3.07;2.10;;;19.40;52.90;20.50;101296.00;;;;4990799;28;20631;-49
2022/05/28 07:53:53;;;;;;;3.83;2.20;;;19.40;53.00;20.50;101307.00;;;;4991354;28;20195;-47
2022/05/28 07:56:19;;;;;;;2.50;2.00;;;19.40;53.00;20.50;101305.00;;;;4992708;28;20196;-48
2022/05/28 07:58:45;;;;;;;2.90;2.00;;;19.40;53.10;20.50;101307.00;;;;4991708;28;20187;-48
2022/05/28 08:01:23;;;;;;;3.73;2.50;;;19.30;53.00;20.50;101301.00;;;;4992841;28;20571;-48
2022/05/28 08:03:49;;;;;;;3.83;2.20;;;19.30;53.10;20.50;101303.00;;;;4992391;28;20571;-47
2022/05/28 08:06:15;;;;;;;2.70;2.00;;;19.30;53.10;20.50;101299.00;;;;4992320;28;20169;-48
2022/05/28 08:08:41;;;;;;;3.07;2.20;;;19.30;53.10;20.50;101293.00;;;;4991095;28;20180;-48
2022/05/28 08:11:08;;;;;;;4.07;2.00;;;19.30;53.10;20.50;101299.00;;;;4991889;28;20576;-48
2022/05/28 08:13:34;;;;;;;5.93;2.10;;;19.30;53.20;20.50;101298.00;;;;4992102;28;20191;-47
2022/05/28 08:16:00;;;;;;;3.60;2.23;;;19.30;53.20;20.50;101290.00;;;;4992143;28;20275;-47
2022/05/28 08:18:25;;;;;;;3.33;2.03;;;19.40;53.30;20.50;101292.00;;;;4992149;28;20657;-47
2022/05/28 08:23:38;;;;;;;3.00;1.90;;;19.30;53.40;20.50;101284.00;;;;4910483;28;20300;-49
2022/05/28 08:26:04;;;;;;;2.33;1.90;;;19.40;53.40;20.50;101290.00;;;;4990745;28;20671;-49
2022/05/28 08:28:29;;;;;;;2.27;1.97;;;19.40;53.50;20.50;101289.00;;;;4991784;28;20173;-47
2022/05/28 08:30:55;;;;;;;9.23;2.40;;;19.40;53.50;20.50;101289.00;;;;4992207;28;20263;-47
2022/05/28 08:33:21;;;;;;;5.97;2.20;;;19.40;54.10;20.50;101288.00;;;;4991681;28;20578;-48
2022/05/28 08:35:48;;;;;;;4.83;2.33;;;19.40;55.10;20.50;101290.00;;;;4993308;28;20282;-47
2022/05/28 08:38:19;;;;;;;4.03;2.27;;;19.40;54.70;20.60;101292.00;;;;4991843;28;20224;-48
2022/05/28 08:40:56;;;;;;;6.93;2.30;;;19.40;54.70;20.60;101287.00;;;;4991206;28;20214;-47
2022/05/28 08:43:22;;;;;;;3.70;2.00;;;19.40;54.40;20.60;101286.00;;;;4991575;28;20172;-47
2022/05/28 08:45:49;;;;;;;3.10;2.20;;;19.40;54.40;20.60;101287.00;;;;4990171;28;20190;-47
2022/05/28 08:48:20;;;;;;;5.67;2.23;;;19.40;54.50;20.60;101282.00;;;;4991202;28;20505;-49
2022/05/28 08:50:52;;;;;;;4.13;2.23;;;19.40;54.50;20.60;101283.00;;;;4991348;28;20196;-49
2022/05/28 08:53:25;;;;;;;3.70;2.13;;;19.40;54.30;20.60;101279.00;;;;4974066;28;20216;-48
2022/05/28 08:55:53;;;;;;;2.97;1.97;;;19.40;54.30;20.60;101289.00;;;;4988584;28;20661;-48
2022/05/28 08:58:22;;;;;;;3.93;2.20;;;19.40;54.20;20.60;101280.00;;;;4989661;28;20204;-47
2022/05/28 09:01:08;;;;;;;2.90;2.00;;;19.40;54.30;20.60;101283.00;;;;4973798;28;20572;-49
2022/05/28 09:03:44;;;;;;;3.20;1.93;;;19.40;54.20;20.60;101285.00;;;;4990100;28;20156;-47
2022/05/28 09:06:20;;;;;;;2.77;1.73;;;19.40;54.20;20.60;101290.00;;;;4975075;28;20423;-48
2022/05/28 09:08:52;;;;;;;2.77;1.90;;;19.40;54.10;20.60;101287.00;;;;4974800;28;20187;-48
2022/05/28 09:11:36;;;;;;;3.37;2.00;;;19.30;54.10;20.60;101281.00;;;;5008327;28;20266;-49
2022/05/28 09:14:48;;;;;;;3.93;2.00;;;19.30;54.00;20.60;101282.00;;;;4998492;28;20648;-49
2022/05/28 09:17:34;;;;;;;3.37;1.90;;;19.40;54.10;20.60;101277.00;;;;4988999;28;20290;-49
2022/05/28 09:20:13;;;;;;;4.77;2.13;;;19.30;54.10;20.50;101282.00;;;;4990001;28;20587;-48
2022/05/28 09:22:39;;;;;;;2.27;1.80;;;19.30;54.10;20.60;101299.00;;;;4989607;28;20661;-48
2022/05/28 09:25:05;;;;;;;1.80;1.60;;;19.30;54.00;20.60;101295.00;;;;4991638;28;20178;-48
2022/05/28 09:28:00;;;;;;;3.87;2.10;;;19.40;54.20;20.60;101290.00;;;;4990887;28;20192;-49
2022/05/28 09:31:06;;;;;;;2.40;2.10;;;19.30;54.00;20.60;101285.00;;;;4990730;28;20275;-47
2022/05/28 09:34:07;;;;;;;2.93;1.90;;;19.30;54.10;20.60;101280.00;;;;4980683;28;20560;-49
2022/05/28 09:37:06;;;;;;;2.63;1.80;;;19.40;54.20;20.60;101271.00;;;;4991086;28;20188;-48
2022/05/28 09:39:49;;;;;;;2.97;1.87;;;19.30;54.00;20.60;101274.00;;;;4970118;28;20472;-48
2022/05/28 09:42:59;;;;;;;2.87;1.83;;;19.40;54.10;20.60;101264.00;;;;4973548;28;20223;-49
2022/05/28 09:45:51;;;;;;;2.83;1.73;;;19.40;54.10;20.60;101250.00;;;;4990531;28;20164;-48
2022/05/28 09:48:23;;;;;;;3.27;2.03;;;19.40;54.10;20.60;101260.00;;;;4988950;28;20255;-48
2022/05/28 09:50:49;;;;;;;3.47;2.17;;;19.40;54.10;20.60;101266.00;;;;4990023;28;20196;-48
2022/05/28 09:56:26;;;;;;;2.30;1.87;;;19.40;54.10;20.60;101275.00;;;;4989782;28;20203;-46
2022/05/28 09:58:52;;;;;;;3.97;1.80;;;19.40;54.10;20.60;101261.00;;;;4989275;28;20157;-46
2022/05/28 10:01:23;;;;;;;2.50;1.83;;;19.50;54.20;20.60;101266.00;;;;4972577;28;20196;-46
2022/05/28 10:06:35;;;;;;;3.70;2.03;;;19.50;54.10;20.60;101258.00;;;;4994083;28;20192;-46
2022/05/28 10:09:14;;;;;;;3.13;1.73;;;19.50;54.00;20.60;101260.00;;;;4996743;28;20183;-46
2022/05/28 10:12:06;;;;;;;3.47;2.00;;;19.50;54.10;20.70;101262.00;;;;4990812;28;20204;-46
2022/05/28 10:14:32;;;;;;;3.57;2.00;;;19.60;54.30;20.70;101265.00;;;;4990219;28;20317;-46
2022/05/28 10:17:00;;;;;;;4.53;2.00;;;19.60;54.20;20.70;101257.00;;;;4992069;28;20223;-49
2022/05/28 10:19:41;;;;;;;2.47;1.70;;;19.60;54.20;20.70;101252.00;;;;4974174;28;20180;-46
2022/05/28 10:22:18;;;;;;;3.57;1.70;;;19.60;54.30;20.70;101248.00;;;;4973775;28;20195;-47
2022/05/28 10:24:50;;;;;;;2.97;1.90;;;19.60;54.20;20.70;101250.00;;;;4988334;28;20260;-47
2022/05/28 10:27:35;;;;;;;1.97;1.70;;;19.60;54.20;20.70;101249.00;;;;4989271;28;20271;-47
2022/05/28 10:30:08;;;;;;;2.20;1.80;;;19.60;54.30;20.80;101255.00;;;;4979950;28;20192;-45
2022/05/28 10:32:37;;;;;;;4.33;1.80;;;19.70;54.40;20.80;101251.00;;;;4991801;28;20164;-47
2022/05/28 10:35:12;;;;;;;3.53;2.00;;;19.70;54.40;20.80;101250.00;;;;4988747;28;20258;-47
2022/05/28 10:37:38;;;;;;;2.43;1.83;;;19.70;54.60;20.80;101246.00;;;;4989040;28;20171;-47
2022/05/28 10:40:17;;;;;;;4.10;1.93;;;19.70;54.60;20.80;101243.00;;;;4989198;28;20274;-46
2022/05/28 10:42:43;;;;;;;2.70;1.57;;;19.70;54.70;20.80;101241.00;;;;4988330;28;20679;-46
2022/05/28 10:45:09;;;;;;;3.50;1.90;;;19.70;54.80;20.80;101245.00;;;;4988995;28;20188;-46
2022/05/28 10:47:57;;;;;;;2.80;1.90;;;19.70;54.70;20.90;101240.00;;;;4968024;28;20240;-46
2022/05/28 10:50:42;;;;;;;2.43;1.63;;;19.80;54.80;20.90;101247.00;;;;4972463;28;20207;-47
2022/05/28 10:53:23;;;;;;;3.67;2.00;;;19.80;54.80;20.90;101250.00;;;;4988125;28;20534;-46
2022/05/28 10:56:30;;;;;;;3.93;1.90;;;19.80;54.90;20.90;101241.00;;;;4984201;28;20193;-46
2022/05/28 10:59:25;;;;;;;4.07;2.00;;;19.80;55.00;20.90;101230.00;;;;4987400;28;20191;-46
2022/05/28 11:02:15;;;;;;;4.50;1.83;;;19.80;55.10;20.90;101241.00;;;;4989330;28;20794;-45
2022/05/28 11:05:11;;;;;;;4.40;1.67;;;19.80;55.10;20.90;101226.00;;;;4919585;28;20194;-47
2022/05/28 11:07:51;;;;;;;3.87;1.77;;;19.90;55.10;20.90;101236.00;;;;4988764;28;20199;-45
2022/05/28 11:10:42;;;;;;;3.20;1.70;;;19.90;55.10;20.90;101205.00;;;;4987333;28;20200;-46
2022/05/28 11:13:40;;;;;;;6.23;1.47;;;19.90;55.40;21.00;101220.00;;;;4971845;28;20220;-45